Granite Falls, Washington
Current Conditions -  °F | °C
As of 7:55 AM on Saturday 25 Oct 2014 (Local Time) from KAWO Reporting Station
Overcast Overcast  
Wind Chill: 42°   Ceiling: 12000
Heat Index: 46°   Visibility: 10mi
Dew Point: 43°   Wind: 9mph
Humidity: 87%   Direction: 220°SW
Pressure: 29.52"   Gusts: NA
Location:  48.08°N, 121.97°W
Report Text: KAWO 251455Z AUTO 22008KT 10SM OVC120 08/06 A2952 RMK AO1 57010
Loading
Personal Weather Stations






























Interactive Weather Map
Tropical Storm Tracking
New forecast layout! Learn more

10-Day Weather Forecast

Advertisements
Track Severe Weather on mobile